Time;durP1;ratioP1;P1;durP2;ratioP2;P2;SDS_P1;SDS_P2;PMS_P1;PMS_P2;Temp;Humidity;BMP_temperature;BMP_pressure;BME280_temperature;BME280_humidity;BME280_pressure;Samples;Min_cycle;Max_cycle;Signal;HPM_P1;HPM_P2
2023/12/22 00:00:56;;;;;;;11.27;2.00;;;6.80;99.90;;;6.72;74.81;99052.16;5055200;28;20423;-84
2023/12/22 00:03:25;;;;;;;8.15;1.85;;;6.80;99.90;;;6.83;75.93;99045.31;5072369;28;20458;-84
2023/12/22 00:05:52;;;;;;;11.02;2.10;;;6.80;99.90;;;6.87;75.52;99040.38;5039343;28;20094;-83
2023/12/22 00:08:19;;;;;;;12.70;2.00;;;6.90;99.90;;;6.88;75.29;99037.53;5072873;28;20067;-83
2023/12/22 00:10:48;;;;;;;8.13;1.77;;;6.90;99.90;;;6.85;75.38;99042.44;5073700;28;20049;-84
2023/12/22 00:13:17;;;;;;;13.95;2.05;;;6.90;99.90;;;6.78;76.05;99036.41;5072693;28;20056;-84
2023/12/22 00:15:45;;;;;;;9.85;1.73;;;6.80;99.90;;;6.67;76.57;99045.91;5072408;28;20053;-84
2023/12/22 00:18:12;;;;;;;12.85;2.28;;;6.70;99.90;;;6.58;76.05;99039.28;5072813;28;20102;-84
2023/12/22 00:20:40;;;;;;;9.75;2.25;;;6.80;99.90;;;6.39;76.63;99047.22;5072481;28;20067;-84
2023/12/22 00:23:08;;;;;;;9.38;1.73;;;6.60;99.90;;;6.49;77.36;99046.72;5073870;28;20114;-85
2023/12/22 00:25:35;;;;;;;9.98;1.95;;;6.60;99.90;;;6.49;77.38;99046.72;5055530;28;20044;-84
2023/12/22 00:28:04;;;;;;;8.57;1.80;;;6.60;99.90;;;6.48;77.74;99068.91;5072383;28;20113;-84
2023/12/22 00:30:32;;;;;;;12.02;2.17;;;6.60;99.90;;;6.56;77.72;99065.19;5072539;28;20048;-84
2023/12/22 00:33:00;;;;;;;9.98;1.80;;;6.70;99.90;;;6.57;77.70;99077.38;5073295;28;20090;-84
2023/12/22 00:35:27;;;;;;;12.27;2.10;;;6.70;99.90;;;6.52;77.55;99077.25;5072520;28;20043;-84
2023/12/22 00:37:54;;;;;;;13.13;2.10;;;6.70;99.90;;;6.60;78.45;99080.41;5074026;28;20482;-84
2023/12/22 00:40:22;;;;;;;12.02;2.28;;;6.70;99.90;;;6.63;77.97;99082.63;5073902;28;20553;-83
2023/12/22 00:42:49;;;;;;;16.52;2.38;;;6.70;99.90;;;6.57;78.14;99078.19;5055279;28;20193;-84
2023/12/22 00:45:19;;;;;;;11.70;2.00;;;6.80;99.90;;;6.66;78.23;99081.38;5055814;28;20401;-84
2023/12/22 00:47:46;;;;;;;7.13;1.80;;;6.80;99.90;;;6.75;78.06;99081.91;5074203;28;20056;-84
2023/12/22 00:50:14;;;;;;;11.50;2.00;;;6.80;99.90;;;6.64;78.00;99076.31;5073027;28;20035;-84
2023/12/22 00:52:41;;;;;;;12.93;2.22;;;6.80;99.90;;;6.66;78.39;99097.28;5055932;28;20474;-85
2023/12/22 00:55:09;;;;;;;9.40;1.90;;;6.80;99.90;;;6.64;78.55;99089.56;5038520;28;20041;-84
2023/12/22 00:57:38;;;;;;;12.82;1.98;;;6.80;99.90;;;6.79;78.55;99096.34;5074069;28;20086;-84
2023/12/22 01:00:10;;;;;;;8.63;2.20;;;6.90;99.90;;;6.71;78.19;99098.22;5073663;28;20121;-84
2023/12/22 01:02:40;;;;;;;13.57;2.28;;;6.90;99.90;;;6.81;78.55;99081.00;5074053;28;20418;-84
2023/12/22 01:05:08;;;;;;;17.38;2.55;;;6.90;99.90;;;6.86;78.59;99094.41;5072325;28;20075;-84
2023/12/22 01:07:35;;;;;;;11.07;2.20;;;7.00;99.90;;;6.81;78.72;99086.31;5074357;28;20044;-84
2023/12/22 01:10:03;;;;;;;12.20;2.28;;;7.00;99.90;;;6.85;78.93;99095.44;5073123;28;20071;-84
2023/12/22 01:12:32;;;;;;;11.48;3.03;;;7.00;99.90;;;6.85;78.73;99090.94;5057449;28;20052;-84
2023/12/22 01:14:59;;;;;;;14.73;2.55;;;7.00;99.90;;;6.78;78.91;99108.75;5072248;28;20087;-84
2023/12/22 01:17:26;;;;;;;14.27;2.55;;;6.90;99.90;;;6.69;79.05;99089.69;5072253;28;20044;-84
2023/12/22 01:19:55;;;;;;;12.57;2.40;;;6.90;99.90;;;6.75;79.38;99092.50;5072499;28;20114;-84
2023/12/22 01:22:23;;;;;;;17.83;2.90;;;7.00;99.90;;;6.76;78.89;99084.31;5071376;28;20039;-84
2023/12/22 01:24:50;;;;;;;10.65;2.05;;;6.90;99.90;;;6.74;77.32;99104.13;5073058;28;20068;-84
2023/12/22 01:27:18;;;;;;;11.77;2.38;;;6.90;99.90;;;6.64;76.34;99109.94;5071851;28;20579;-84
2023/12/22 01:29:45;;;;;;;18.67;2.10;;;6.90;99.90;;;6.71;75.45;99105.38;5072306;28;20048;-84
2023/12/22 01:32:13;;;;;;;8.10;1.90;;;6.90;99.90;;;6.78;75.49;99127.28;5105384;28;20091;-84
2023/12/22 01:34:40;;;;;;;15.50;2.28;;;6.90;99.90;;;6.83;76.98;99146.03;5070865;28;20068;-84
2023/12/22 01:37:10;;;;;;;8.85;2.00;;;7.00;99.90;;;6.80;76.34;99146.44;5072816;28;20055;-84
2023/12/22 01:39:38;;;;;;;6.47;1.63;;;6.90;99.90;;;6.62;76.47;99171.06;5038405;28;20083;-84
2023/12/22 01:42:06;;;;;;;5.60;1.23;;;6.80;99.90;;;6.49;76.55;99165.91;5072464;28;20033;-84
2023/12/22 01:44:33;;;;;;;6.15;0.95;;;6.60;99.90;;;6.33;76.86;99161.13;5054362;28;20052;-84
2023/12/22 01:47:01;;;;;;;6.40;0.90;;;6.50;99.90;;;6.27;76.97;99151.41;5054410;28;20056;-84
2023/12/22 01:49:32;;;;;;;6.32;1.05;;;6.30;99.90;;;6.11;76.40;99140.31;5070969;28;20084;-84
2023/12/22 01:52:00;;;;;;;4.47;1.00;;;6.20;99.90;;;6.17;77.34;99158.00;5070839;28;20044;-84
2023/12/22 01:54:34;;;;;;;2.58;0.70;;;6.20;99.90;;;6.12;77.27;99152.53;5070083;28;20059;-84
2023/12/22 01:57:02;;;;;;;4.53;0.90;;;6.20;99.90;;;6.09;78.08;99154.78;5090041;28;20056;-84
2023/12/22 01:59:34;;;;;;;5.38;1.20;;;6.10;99.90;;;6.11;78.13;99174.72;5073256;28;20044;-84
2023/12/22 02:02:02;;;;;;;4.25;1.15;;;6.20;99.90;;;6.24;78.06;99184.41;5057111;28;20051;-84
2023/12/22 02:04:32;;;;;;;9.52;1.10;;;6.20;99.90;;;6.11;78.56;99189.81;5056416;28;20432;-84
2023/12/22 02:07:02;;;;;;;6.75;1.40;;;6.20;99.90;;;6.06;78.97;99163.97;5073268;28;20464;-84
2023/12/22 02:09:31;;;;;;;12.55;2.45;;;6.20;99.90;;;6.03;79.71;99160.94;5073352;28;20052;-84
2023/12/22 02:11:58;;;;;;;7.82;1.67;;;6.20;99.90;;;6.02;80.09;99154.84;5073326;28;20071;-84
2023/12/22 02:14:26;;;;;;;9.82;1.83;;;6.20;99.90;;;6.09;79.97;99154.78;5073300;28;20131;-84
2023/12/22 02:17:01;;;;;;;11.52;2.08;;;6.20;99.90;;;6.05;80.13;99149.13;5072657;28;20057;-84
2023/12/22 02:19:43;;;;;;;8.80;2.22;;;6.20;99.90;;;6.08;80.23;99140.75;5073019;28;20048;-84
2023/12/22 02:22:13;;;;;;;14.48;2.10;;;6.50;99.90;;;6.10;80.39;99141.34;5074906;28;20048;-84
2023/12/22 02:24:43;;;;;;;11.15;2.08;;;6.30;99.90;;;6.14;80.19;99163.69;5060137;28;20091;-83
2023/12/22 02:27:23;;;;;;;9.50;1.90;;;6.30;99.90;;;6.14;80.56;99153.09;5091716;28;20054;-84
2023/12/22 02:29:59;;;;;;;11.48;2.08;;;6.30;99.90;;;6.10;80.65;99159.88;5075779;28;20287;-84
2023/12/22 02:32:32;;;;;;;12.48;1.85;;;6.20;99.90;;;6.16;80.18;99163.50;5058427;28;20466;-84
2023/12/22 02:35:02;;;;;;;10.45;1.73;;;6.30;99.90;;;6.08;80.84;99175.16;5075334;28;20500;-84
2023/12/22 02:37:31;;;;;;;10.10;2.13;;;6.20;99.90;;;6.16;80.40;99187.31;5074327;28;20090;-84
2023/12/22 02:40:02;;;;;;;12.45;3.00;;;6.30;99.90;;;6.10;80.10;99169.63;5073859;28;20507;-84
2023/12/22 02:42:33;;;;;;;13.73;2.78;;;6.30;99.90;;;6.11;80.82;99148.25;5073852;28;20094;-83
2023/12/22 02:45:03;;;;;;;15.73;3.35;;;6.20;99.90;;;6.17;80.90;99120.94;5089725;28;20071;-83
2023/12/22 02:47:32;;;;;;;9.98;2.10;;;6.30;99.90;;;6.13;81.28;99127.66;5076069;28;20052;-83
2023/12/22 02:50:02;;;;;;;10.48;2.45;;;6.30;99.90;;;6.07;81.33;99144.41;5058101;28;20400;-83
2023/12/22 02:52:31;;;;;;;11.32;2.45;;;6.30;99.90;;;6.00;81.39;99146.28;5074347;28;20056;-83
2023/12/22 02:55:00;;;;;;;12.93;2.60;;;6.20;99.90;;;6.04;81.57;99123.66;5075261;28;20495;-84
2023/12/22 02:57:27;;;;;;;14.40;2.65;;;6.20;99.90;;;6.00;81.02;99121.66;5074592;28;20072;-85
2023/12/22 02:59:56;;;;;;;12.55;2.40;;;6.20;99.90;;;6.02;80.60;99141.59;5074726;28;20078;-83
2023/12/22 03:02:23;;;;;;;10.02;2.75;;;6.20;99.90;;;6.04;79.98;99136.91;5075569;28;20495;-83
2023/12/22 03:04:51;;;;;;;14.18;2.67;;;6.20;99.90;;;6.09;80.22;99136.25;5074290;28;20052;-83
2023/12/22 03:07:18;;;;;;;11.88;3.80;;;6.20;99.90;;;6.16;80.15;99144.97;5074595;28;20507;-84
2023/12/22 03:09:46;;;;;;;16.88;3.03;;;6.30;99.90;;;6.10;80.45;99141.34;5075619;28;20067;-84
2023/12/22 03:12:14;;;;;;;12.95;2.78;;;6.20;99.90;;;6.15;80.64;99141.53;5074451;28;20092;-84
2023/12/22 03:14:43;;;;;;;12.77;2.28;;;6.20;99.90;;;6.26;80.71;99150.59;5041711;28;20118;-84
2023/12/22 03:17:11;;;;;;;10.88;2.40;;;6.30;99.90;;;6.24;80.42;99146.53;5074409;28;20098;-84
2023/12/22 03:19:40;;;;;;;15.30;2.10;;;6.30;99.90;;;6.15;80.76;99154.75;5058764;28;20059;-84
2023/12/22 03:22:08;;;;;;;11.85;2.20;;;6.30;99.90;;;6.14;81.29;99160.25;5075622;28;20090;-84
2023/12/22 03:24:36;;;;;;;12.60;2.30;;;6.20;99.90;;;6.15;81.40;99149.47;5076191;28;20050;-84
2023/12/22 03:27:06;;;;;;;10.00;1.90;;;6.20;99.90;;;6.16;81.46;99145.78;5076651;28;20044;-84
2023/12/22 03:29:35;;;;;;;12.00;2.53;;;6.30;99.90;;;6.29;81.52;99128.16;5075078;28;20056;-84
2023/12/22 03:32:03;;;;;;;9.05;2.40;;;6.40;99.90;;;6.35;81.17;99145.84;5075057;28;20075;-84
2023/12/22 03:34:30;;;;;;;13.45;2.88;;;6.40;99.90;;;6.25;81.20;99154.28;5074618;28;20393;-84
2023/12/22 03:36:58;;;;;;;17.45;2.83;;;6.40;99.90;;;6.16;81.66;99160.84;5074792;28;20104;-84
2023/12/22 03:39:26;;;;;;;12.43;2.53;;;6.30;99.90;;;6.23;81.67;99137.78;5076228;28;20091;-84
2023/12/22 03:41:53;;;;;;;13.90;2.63;;;6.40;99.90;;;6.24;81.23;99131.44;5075042;28;20075;-85
2023/12/22 03:44:21;;;;;;;16.30;2.97;;;6.40;99.90;;;6.26;81.74;99131.25;5074143;28;20530;-84
2023/12/22 03:46:51;;;;;;;14.05;2.65;;;6.40;99.90;;;6.38;81.29;99130.31;5073817;28;20040;-84
2023/12/22 03:49:19;;;;;;;15.38;3.15;;;6.50;99.90;;;6.46;80.90;99153.09;5074481;28;20044;-84
2023/12/22 03:51:46;;;;;;;15.10;3.10;;;6.50;99.90;;;6.52;80.96;99136.31;5075494;28;20033;-84
2023/12/22 03:54:15;;;;;;;16.60;3.25;;;6.50;99.90;;;6.43;80.88;99148.22;5057878;28;20139;-84
2023/12/22 03:56:43;;;;;;;18.58;2.85;;;6.50;99.90;;;6.57;81.25;99152.38;5073908;28;20591;-84
2023/12/22 03:59:10;;;;;;;20.08;3.45;;;6.60;99.90;;;6.65;80.65;99136.19;5072382;28;20420;-84
2023/12/22 04:01:38;;;;;;;16.65;3.75;;;6.70;99.90;;;6.56;80.66;99156.03;5072442;28;20029;-84
2023/12/22 04:04:07;;;;;;;19.50;3.63;;;6.60;99.90;;;6.68;80.59;99138.41;5073313;28;20048;-84
2023/12/22 04:06:39;;;;;;;19.25;2.90;;;6.70;99.90;;;6.76;80.48;99139.97;5055407;28;20044;-84
2023/12/22 04:09:06;;;;;;;14.43;2.63;;;6.70;99.90;;;6.72;80.07;99139.59;5073643;28;20442;-84
2023/12/22 04:11:34;;;;;;;17.38;2.70;;;6.70;99.90;;;6.71;80.11;99153.06;5073466;28;20058;-84
2023/12/22 04:14:02;;;;;;;13.43;2.55;;;6.70;99.90;;;6.77;80.11;99152.16;5073327;28;20135;-84
2023/12/22 04:16:29;;;;;;;14.15;2.88;;;6.70;99.90;;;6.82;79.99;99159.47;5055635;28;20500;-84
2023/12/22 04:18:57;;;;;;;24.20;2.75;;;6.70;99.90;;;6.71;79.50;99159.16;5073115;28;20036;-84
2023/12/22 04:21:26;;;;;;;13.13;2.58;;;6.70;99.90;;;6.75;79.69;99146.28;5072388;28;20060;-84
2023/12/22 04:23:53;;;;;;;15.63;2.58;;;6.70;99.90;;;6.71;79.77;99137.97;5088818;28;20084;-84
2023/12/22 04:26:21;;;;;;;11.88;2.47;;;6.70;99.90;;;6.63;79.37;99119.69;5071875;28;20098;-84
2023/12/22 04:28:48;;;;;;;14.35;2.20;;;6.70;99.90;;;6.64;80.24;99118.69;5055437;28;20151;-84
2023/12/22 04:31:15;;;;;;;10.57;2.33;;;6.60;99.90;;;6.66;80.33;99124.56;5071784;28;20079;-84
2023/12/22 04:33:43;;;;;;;12.95;2.25;;;6.60;99.90;;;6.59;80.12;99133.63;5073048;28;20068;-84
2023/12/22 04:36:10;;;;;;;16.85;2.70;;;6.60;99.90;;;6.68;80.82;99143.69;5073100;28;20040;-84
2023/12/22 04:38:43;;;;;;;19.83;3.03;;;6.60;99.90;;;6.76;80.82;99165.66;5055311;28;20048;-83
2023/12/22 04:41:12;;;;;;;15.38;2.60;;;6.70;99.90;;;6.80;80.65;99177.44;5072741;28;20044;-84
2023/12/22 04:43:40;;;;;;;17.42;2.88;;;6.70;99.90;;;6.62;79.66;99181.66;5074358;28;20098;-84
2023/12/22 04:46:07;;;;;;;20.80;3.67;;;6.70;99.90;;;6.67;80.19;99173.88;5072993;28;20062;-83
2023/12/22 04:48:36;;;;;;;20.17;3.58;;;6.70;99.90;;;6.68;80.13;99195.88;5073032;28;20049;-84
2023/12/22 04:51:04;;;;;;;13.80;3.00;;;6.70;99.90;;;6.59;80.40;99210.44;5072544;28;20106;-84
2023/12/22 04:53:31;;;;;;;21.17;3.28;;;6.60;99.90;;;6.57;81.00;99201.88;5073147;28;20504;-84
2023/12/22 04:56:00;;;;;;;23.15;3.22;;;6.60;99.90;;;6.60;81.57;99199.63;5072613;28;20048;-84
2023/12/22 04:58:29;;;;;;;14.18;2.90;;;6.60;99.90;;;6.65;81.67;99212.22;5073354;28;20114;-84
2023/12/22 05:00:56;;;;;;;20.85;3.00;;;6.70;99.90;;;6.72;81.65;99208.47;5073095;28;20098;-84
2023/12/22 05:03:23;;;;;;;15.68;2.72;;;6.70;99.90;;;6.76;81.52;99208.84;5106525;28;20067;-83
2023/12/22 05:05:51;;;;;;;12.85;2.83;;;6.70;99.90;;;6.82;81.16;99207.16;5073418;28;20505;-84
2023/12/22 05:08:18;;;;;;;14.88;2.75;;;6.80;99.90;;;6.80;81.38;99244.50;5073396;28;20071;-84
2023/12/22 05:10:46;;;;;;;14.05;2.67;;;6.70;99.90;;;6.82;81.13;99223.88;5074410;28;20037;-84
2023/12/22 05:13:15;;;;;;;13.77;2.42;;;6.70;99.90;;;6.71;81.11;99233.34;5056431;28;20047;-84
2023/12/22 05:15:42;;;;;;;13.48;1.88;;;6.60;99.90;;;6.53;80.61;99230.63;5073025;28;20049;-85
2023/12/22 05:18:12;;;;;;;12.32;1.80;;;6.50;99.90;;;6.49;80.67;99229.47;5069453;28;20409;-84
2023/12/22 05:20:40;;;;;;;10.30;1.85;;;6.50;99.90;;;6.32;80.47;99217.75;5036149;28;20068;-84
2023/12/22 05:23:07;;;;;;;8.38;1.95;;;6.40;99.90;;;6.37;81.15;99217.94;5053625;28;20514;-84
2023/12/22 05:25:35;;;;;;;6.75;1.50;;;6.40;99.90;;;6.34;81.00;99218.34;5054445;28;20065;-84
2023/12/22 05:28:02;;;;;;;8.40;1.70;;;6.70;99.90;;;6.44;81.29;99221.31;5042867;28;20491;-84
2023/12/22 05:30:31;;;;;;;7.95;1.25;;;6.40;99.90;;;6.42;80.97;99218.09;5075562;28;20056;-84
2023/12/22 05:32:59;;;;;;;10.40;1.45;;;6.40;99.90;;;6.39;81.91;99229.09;5073875;28;20056;-84
2023/12/22 05:35:26;;;;;;;5.53;1.30;;;6.40;99.90;;;6.44;81.88;99230.09;5055259;28;20131;-84
2023/12/22 05:37:54;;;;;;;9.05;1.75;;;6.50;99.90;;;6.43;81.85;99235.59;5073386;28;20044;-84
2023/12/22 05:40:21;;;;;;;8.25;1.52;;;6.50;99.90;;;6.43;81.93;99225.00;5072872;28;20072;-84
2023/12/22 05:42:48;;;;;;;10.27;1.73;;;6.50;99.90;;;6.48;82.02;99214.56;5072731;28;20075;-84
2023/12/22 05:45:17;;;;;;;6.63;2.00;;;6.50;99.90;;;6.54;82.24;99237.56;5073031;28;20522;-84
2023/12/22 05:47:46;;;;;;;8.73;2.20;;;6.50;99.90;;;6.56;81.75;99232.06;5073178;28;20074;-84
2023/12/22 05:50:13;;;;;;;6.63;2.00;;;6.70;99.90;;;6.58;82.05;99238.75;5072196;28;20048;-84
2023/12/22 05:52:41;;;;;;;11.32;2.50;;;6.50;99.90;;;6.59;81.77;99236.94;5056085;28;20466;-84
2023/12/22 05:55:09;;;;;;;9.80;2.13;;;6.50;99.90;;;6.60;81.96;99244.66;5072986;28;20053;-84
2023/12/22 05:57:37;;;;;;;9.07;1.70;;;6.50;99.90;;;6.61;82.11;99233.03;5075666;28;20040;-85
2023/12/22 06:00:07;;;;;;;10.38;1.75;;;6.50;99.90;;;6.65;81.68;99228.91;5042899;28;20527;-85
2023/12/22 06:02:35;;;;;;;10.35;2.50;;;6.60;99.90;;;6.63;81.41;99238.91;5078556;28;20045;-83
2023/12/22 06:05:04;;;;;;;11.00;2.22;;;6.60;99.90;;;6.65;81.33;99244.81;5086788;28;20487;-84
2023/12/22 06:07:33;;;;;;;11.10;2.22;;;6.60;99.90;;;6.61;81.34;99230.38;5086140;28;20060;-84
2023/12/22 06:10:00;;;;;;;11.80;2.40;;;6.60;99.90;;;6.64;81.14;99237.91;5087574;28;20117;-86
2023/12/22 06:12:28;;;;;;;9.77;2.30;;;6.60;99.90;;;6.64;81.42;99232.59;5051398;28;20504;-84
2023/12/22 06:14:57;;;;;;;10.50;2.20;;;6.60;99.90;;;6.70;81.58;99225.63;5084884;28;20469;-86
2023/12/22 06:17:24;;;;;;;13.18;2.33;;;6.60;99.90;;;6.73;81.52;99235.78;5075164;28;20151;-85
2023/12/22 06:19:52;;;;;;;13.85;2.72;;;6.60;99.90;;;6.75;81.32;99260.22;5075806;28;20052;-85
2023/12/22 06:22:22;;;;;;;11.20;2.65;;;6.70;99.90;;;6.77;81.45;99249.41;5074645;28;20056;-85
2023/12/22 06:24:50;;;;;;;12.23;2.95;;;6.70;99.90;;;6.76;81.35;99234.53;5077008;28;20078;-86
2023/12/22 06:27:18;;;;;;;16.95;3.17;;;6.70;99.90;;;6.82;81.29;99233.66;5078639;28;20395;-86
2023/12/22 06:29:45;;;;;;;12.98;2.65;;;6.70;99.90;;;6.86;81.32;99229.56;5075296;28;20048;-85
2023/12/22 06:32:13;;;;;;;11.20;2.55;;;6.70;99.90;;;6.88;80.97;99235.44;5077410;28;20048;-84
2023/12/22 06:34:41;;;;;;;13.20;2.80;;;6.70;99.90;;;6.83;80.63;99246.72;5076460;28;20044;-87
2023/12/22 06:37:08;;;;;;;17.98;2.97;;;6.70;99.90;;;6.88;80.65;99240.75;5074187;28;20569;-87
2023/12/22 06:39:37;;;;;;;12.65;3.00;;;6.70;99.90;;;6.89;80.77;99253.00;5074829;28;20060;-85
2023/12/22 06:42:10;;;;;;;14.73;3.10;;;6.70;99.90;;;6.87;80.19;99257.66;5075088;28;20651;-86
2023/12/22 06:44:38;;;;;;;18.80;3.78;;;6.70;99.90;;;6.88;80.74;99241.56;5075935;28;20060;-85
2023/12/22 06:47:06;;;;;;;15.05;3.47;;;6.70;99.90;;;6.87;80.44;99226.69;5058943;28;20427;-86
2023/12/22 06:49:34;;;;;;;19.63;3.85;;;6.70;99.90;;;6.88;80.68;99238.09;5075470;28;20041;-86
2023/12/22 06:52:02;;;;;;;23.33;3.15;;;6.80;99.90;;;6.91;80.64;99246.41;5076312;28;20143;-86
2023/12/22 06:54:30;;;;;;;14.75;3.25;;;6.80;99.90;;;6.93;80.56;99247.03;5075666;28;20041;-85
2023/12/22 06:56:59;;;;;;;19.35;3.40;;;6.80;99.90;;;6.95;80.51;99244.97;5074932;28;20161;-86
2023/12/22 06:59:27;;;;;;;13.35;2.85;;;6.80;99.90;;;6.92;80.35;99241.94;5075231;28;20064;-85
2023/12/22 07:01:56;;;;;;;16.63;2.85;;;6.80;99.90;;;6.90;80.63;99223.59;5075804;28;20062;-85
2023/12/22 07:05:06;;;;;;;18.92;2.92;;;6.80;99.90;;;6.97;80.74;99226.19;5061858;28;20143;-85
2023/12/22 07:07:35;;;;;;;;;;;6.90;99.90;;;7.02;80.89;99221.03;5078999;28;20063;-84
2023/12/22 07:10:02;;;;;;;14.98;2.65;;;6.90;99.90;;;7.01;80.74;99216.78;5077708;28;20019;-84
2023/12/22 07:12:31;;;;;;;18.58;2.60;;;6.90;99.90;;;7.03;80.82;99209.44;5075542;28;20045;-85
2023/12/22 07:14:59;;;;;;;14.88;2.70;;;6.90;99.90;;;7.04;80.47;99205.75;5075153;28;20041;-85
2023/12/22 07:17:26;;;;;;;16.13;2.88;;;6.90;99.90;;;7.02;80.29;99207.78;5076776;28;20055;-84
2023/12/22 07:19:57;;;;;;;15.82;2.75;;;6.90;99.90;;;7.01;80.66;99208.81;5076980;28;20067;-84
2023/12/22 07:22:25;;;;;;;12.05;2.60;;;6.90;99.90;;;7.02;80.86;99212.28;5074667;28;20041;-84
2023/12/22 07:24:52;;;;;;;18.70;2.72;;;6.90;99.90;;;6.95;80.11;99209.69;5041803;28;20131;-85
2023/12/22 07:27:20;;;;;;;14.35;2.35;;;6.80;99.90;;;6.89;80.41;99197.34;5077359;28;20040;-84
2023/12/22 07:29:49;;;;;;;15.95;2.55;;;6.80;99.90;;;6.91;80.46;99203.22;5077468;28;20511;-84
2023/12/22 07:32:17;;;;;;;15.88;2.83;;;6.90;99.90;;;6.80;80.66;99204.75;5075271;28;20075;-84
2023/12/22 07:34:46;;;;;;;18.30;2.30;;;6.80;99.90;;;6.80;80.53;99203.94;5077236;28;20048;-84
2023/12/22 07:37:14;;;;;;;19.45;2.53;;;6.80;99.90;;;6.88;80.89;99212.44;5076486;28;20044;-84
2023/12/22 07:39:45;;;;;;;16.20;2.75;;;6.90;99.90;;;6.94;81.00;99208.09;5076980;28;20503;-85
2023/12/22 07:42:14;;;;;;;20.30;2.60;;;6.90;99.90;;;6.93;81.06;99227.69;5058627;28;20044;-85
2023/12/22 07:44:41;;;;;;;19.17;3.08;;;6.90;99.90;;;6.90;81.33;99225.44;5076763;28;20052;-84
2023/12/22 07:47:11;;;;;;;19.85;2.80;;;6.90;99.90;;;6.90;81.71;99210.34;5076503;28;20052;-83
2023/12/22 07:49:38;;;;;;;20.20;3.15;;;6.90;99.90;;;6.94;81.95;99211.53;5055552;28;20048;-84
2023/12/22 07:52:09;;;;;;;22.58;3.95;;;7.00;99.90;;;6.95;82.14;99204.41;5073486;28;20045;-84
2023/12/22 07:54:37;;;;;;;21.92;3.80;;;7.00;99.90;;;6.97;82.67;99195.19;5075001;28;20045;-83
2023/12/22 07:57:06;;;;;;;27.35;2.88;;;7.00;99.90;;;6.94;82.58;99203.59;5073045;28;20504;-84
2023/12/22 07:59:33;;;;;;;24.77;2.75;;;7.00;99.90;;;6.99;82.83;99196.84;5073022;28;20053;-84
2023/12/22 08:02:01;;;;;;;18.98;3.00;;;7.00;99.90;;;6.99;83.56;99202.94;5072432;28;20047;-83
2023/12/22 08:04:30;;;;;;;18.83;3.53;;;7.10;99.90;;;7.01;83.77;99192.91;5055863;28;20462;-84
2023/12/22 08:06:57;;;;;;;15.85;3.58;;;7.10;99.90;;;7.00;83.45;99199.25;5073856;28;20036;-84
2023/12/22 08:09:25;;;;;;;15.95;2.67;;;7.10;99.90;;;7.03;83.71;99201.47;5073458;28;20499;-84
2023/12/22 08:11:53;;;;;;;25.50;3.92;;;7.10;99.90;;;6.99;84.23;99207.44;5073531;28;20135;-85
2023/12/22 08:14:22;;;;;;;23.85;3.67;;;7.20;99.90;;;7.00;84.27;99203.75;5074251;28;20472;-84
2023/12/22 08:16:54;;;;;;;23.73;4.25;;;7.20;99.90;;;7.04;84.46;99208.41;5074054;28;20048;-84
2023/12/22 08:19:21;;;;;;;24.73;4.10;;;7.20;99.90;;;7.05;84.33;99220.59;5072850;28;20057;-84
2023/12/22 08:21:54;;;;;;;24.00;4.15;;;7.30;99.90;;;7.04;85.03;99226.94;5056371;28;20079;-85
2023/12/22 08:24:22;;;;;;;26.50;4.30;;;7.30;99.90;;;7.11;85.08;99217.06;5073779;28;20049;-84
2023/12/22 08:26:51;;;;;;;27.70;4.28;;;7.00;99.90;;;7.15;85.11;99220.91;5073061;28;20048;-84
2023/12/22 08:29:19;;;;;;;27.08;4.50;;;7.40;99.90;;;7.15;85.27;99228.88;5072190;28;20040;-84
2023/12/22 08:31:48;;;;;;;30.30;5.15;;;7.40;99.90;;;7.21;85.36;99229.81;5075291;28;20046;-84
2023/12/22 08:34:16;;;;;;;29.35;4.88;;;7.40;99.90;;;7.19;85.55;99227.41;5053861;28;20080;-84
2023/12/22 08:36:44;;;;;;;30.75;5.40;;;7.40;99.90;;;7.19;85.78;99240.66;5073781;28;20053;-83
2023/12/22 08:39:13;;;;;;;34.75;5.68;;;7.40;99.90;;;7.22;85.39;99234.94;5074585;28;20036;-84
2023/12/22 08:41:41;;;;;;;29.35;5.22;;;7.50;99.90;;;7.29;85.48;99223.44;5073973;28;20056;-83
2023/12/22 08:44:08;;;;;;;34.08;5.35;;;7.50;99.90;;;7.32;85.62;99207.91;5072663;28;20040;-84
2023/12/22 08:46:36;;;;;;;33.10;4.78;;;7.50;99.90;;;7.32;85.60;99221.16;5073114;28;20128;-83
2023/12/22 08:49:05;;;;;;;30.27;5.07;;;7.60;99.90;;;7.37;85.56;99216.00;5075164;28;20048;-83
2023/12/22 08:51:33;;;;;;;29.27;4.78;;;7.60;99.90;;;7.36;85.92;99224.97;5073606;28;20140;-84
2023/12/22 08:54:04;;;;;;;30.63;5.70;;;7.60;99.90;;;7.43;85.97;99225.72;5072979;28;20556;-83
2023/12/22 08:56:35;;;;;;;37.35;5.63;;;7.60;99.90;;;7.44;85.82;99223.88;5074995;28;20415;-84
2023/12/22 08:59:03;;;;;;;27.80;5.47;;;7.60;99.90;;;7.49;86.07;99234.63;5074550;28;20052;-84
2023/12/22 09:01:40;;;;;;;34.90;5.80;;;7.70;99.90;;;7.50;86.24;99217.69;5073749;28;20507;-86
2023/12/22 09:04:09;;;;;;;38.13;6.35;;;7.70;99.90;;;7.52;86.21;99220.13;5052331;28;20071;-83
2023/12/22 09:06:37;;;;;;;35.90;5.60;;;7.70;99.90;;;7.53;86.58;99208.47;5053404;28;20040;-83
2023/12/22 09:09:06;;;;;;;32.90;5.63;;;7.70;99.90;;;7.54;86.40;99178.25;5067422;28;20044;-83
2023/12/22 09:11:36;;;;;;;28.95;5.10;;;7.70;99.90;;;7.50;85.84;99215.03;5073981;28;20048;-84
2023/12/22 09:14:06;;;;;;;20.83;3.50;;;7.70;99.90;;;7.44;84.84;99207.97;5074986;28;20067;-84
2023/12/22 09:16:35;;;;;;;17.05;3.67;;;7.60;99.90;;;7.44;84.75;99207.97;5038978;28;20076;-84
2023/12/22 09:19:04;;;;;;;24.23;3.72;;;7.60;99.90;;;7.40;84.23;99202.28;5072755;28;20068;-83
2023/12/22 09:21:32;;;;;;;22.88;3.53;;;7.60;99.90;;;7.41;84.47;99197.78;5038422;28;20041;-83
2023/12/22 09:24:00;;;;;;;21.38;4.13;;;7.60;99.90;;;7.44;84.77;99203.47;5073402;28;20055;-84
2023/12/22 09:26:27;;;;;;;25.42;4.20;;;7.60;99.90;;;7.52;85.15;99214.81;5055202;28;20060;-84
2023/12/22 09:28:57;;;;;;;23.33;4.07;;;7.60;99.90;;;7.56;85.27;99205.38;5054987;28;20044;-85
2023/12/22 09:31:25;;;;;;;18.38;3.72;;;7.60;99.90;;;7.56;85.28;99202.72;5074632;28;20048;-84
2023/12/22 09:33:53;;;;;;;16.40;3.38;;;7.60;99.90;;;7.60;85.33;99203.88;5075486;28;20056;-83
2023/12/22 09:36:21;;;;;;;20.25;3.60;;;7.60;99.90;;;7.64;85.56;99184.66;5059230;28;20055;-83
2023/12/22 09:38:49;;;;;;;18.67;3.85;;;7.70;99.90;;;7.68;85.66;99132.75;5059973;28;20059;-83
2023/12/22 09:41:18;;;;;;;21.17;4.13;;;7.60;99.90;;;7.65;85.67;99196.88;5060212;28;20052;-83
2023/12/22 09:43:52;;;;;;;14.18;3.45;;;7.60;99.90;;;7.66;86.40;99187.06;5059356;28;20123;-83
2023/12/22 09:46:26;;;;;;;17.55;3.75;;;7.60;99.90;;;7.63;86.71;99180.38;5060606;28;20048;-84
2023/12/22 09:48:54;;;;;;;21.15;4.43;;;7.60;99.90;;;7.60;86.22;99186.13;5079619;28;20511;-84
2023/12/22 09:51:23;;;;;;;21.35;4.63;;;7.60;99.90;;;7.55;86.67;99180.69;5078768;28;20037;-84
2023/12/22 09:54:05;;;;;;;16.42;4.22;;;7.50;99.90;;;7.60;86.87;99174.72;5077744;28;20043;-84
2023/12/22 09:56:36;;;;;;;19.17;4.60;;;7.60;99.90;;;7.60;87.01;99177.34;5080612;28;20056;-84
2023/12/22 09:59:07;;;;;;;21.40;4.75;;;7.60;99.90;;;7.54;87.31;99173.75;5082502;28;20206;-84
2023/12/22 10:01:37;;;;;;;;;;;7.50;99.90;;;7.46;88.27;99177.50;5081018;28;20055;-84
2023/12/22 10:04:05;;;;;;;33.55;5.82;;;7.50;99.90;;;7.43;89.31;99175.31;5077680;28;20379;-84
2023/12/22 10:06:33;;;;;;;29.77;4.53;;;7.50;99.90;;;7.47;89.99;99155.28;5062658;28;20835;-84
2023/12/22 10:09:01;;;;;;;24.85;4.82;;;7.60;99.90;;;7.51;90.15;99146.84;5078965;28;20046;-84
2023/12/22 10:11:31;;;;;;;24.88;5.18;;;7.60;99.90;;;7.56;90.13;99144.34;5067412;28;20114;-85
2023/12/22 10:14:00;;;;;;;24.17;5.60;;;7.60;99.90;;;7.64;89.90;99152.00;5081141;28;20045;-85
2023/12/22 10:16:28;;;;;;;24.90;6.07;;;7.70;99.90;;;7.63;90.08;99180.38;5064805;28;20849;-84
2023/12/22 10:18:57;;;;;;;29.08;5.10;;;7.60;99.90;;;7.66;90.06;99171.16;5081023;28;20040;-85
2023/12/22 10:21:24;;;;;;;25.00;4.80;;;7.70;99.90;;;7.71;89.99;99177.44;5080777;28;20048;-85
2023/12/22 10:23:52;;;;;;;29.58;5.80;;;7.70;99.90;;;7.76;89.64;99176.75;5080799;28;20040;-85
2023/12/22 10:26:22;;;;;;;23.75;5.60;;;7.80;99.90;;;7.74;89.90;99158.38;5079623;28;20106;-85
2023/12/22 10:28:51;;;;;;;27.15;6.15;;;7.80;99.90;;;7.64;90.62;99159.97;5076788;28;20045;-84
2023/12/22 10:31:19;;;;;;;24.63;6.68;;;7.70;99.90;;;7.65;91.06;99154.41;5061694;28;20056;-84
2023/12/22 10:33:47;;;;;;;25.92;6.68;;;7.70;99.90;;;7.68;91.25;99145.22;5076068;28;20419;-84